Ext Villa los Santos Ii, Puerto Rico
Current Conditions -  °F | °C
As of 1:50 PM on Thursday 27 Nov 2014 (Local Time) from TJBQ Reporting Station
Scattered Clouds Scattered Clouds  
Wind Chill: 82°   Ceiling: Unl
Heat Index: 86°   Visibility: 10mi
Dew Point: 70°   Wind: 14mph
Humidity: 66%   Direction: 80°E
Pressure: 29.96"   Gusts: NA
Location:  18.4739°N, 66.7295°W
Report Text: TJBQ 271750Z 08012KT 10SM SCT030 28/21 A2996 RMK RWY08 ATIS E
Loading
Personal Weather Stations






























Interactive Weather Map New forecast layout! Learn more

10-Day Weather Forecast

Advertisements
Track Severe Weather on mobile